Terminal Aerodrome Forecast
Issued by NWS

Home | Current Version | Previous Version | Text Only | Print | Product List | Glossary On
Versions: 1 2 3 4 5 6 7 8 9 10 11 12 13 14 15 16 17 18
139
FTUS41 KBGM 111738
TAFITH
TAF
KITH 111738Z 1118/1218 31015G25KT P6SM FEW018 BKN035
      TEMPO 1118/1121 4SM -SHSN OVC018
     FM120100 30012KT P6SM BKN040
     FM120700 22008KT P6SM BKN250=

USA.gov is the U.S. government's official web portal to all federal, state and local government web resources and services.